createdAt,value
2023-04-14T00:00:00.565Z,7.6
2023-04-14T00:01:00.412Z,7.5
2023-04-14T00:02:00.582Z,7.5
2023-04-14T00:03:00.615Z,7.5
2023-04-14T00:04:00.778Z,7.5
2023-04-14T00:05:00.484Z,7.5
2023-04-14T00:06:00.422Z,7.1
2023-04-14T00:07:00.431Z,7.1
2023-04-14T00:08:00.766Z,7.1
2023-04-14T00:09:00.598Z,7.1
2023-04-14T00:10:00.466Z,7.1
2023-04-14T00:11:00.754Z,6.9
2023-04-14T00:12:00.495Z,6.9
2023-04-14T00:13:00.450Z,6.9
2023-04-14T00:14:00.441Z,6.9
2023-04-14T00:15:00.443Z,6.9
2023-04-14T00:16:00.682Z,6.8
2023-04-14T00:17:00.671Z,6.8
2023-04-14T00:18:00.487Z,6.8
2023-04-14T00:19:00.657Z,6.8
2023-04-14T00:20:00.446Z,6.8
2023-04-14T00:21:00.410Z,6.7
2023-04-14T00:22:00.402Z,6.7
2023-04-14T00:23:00.405Z,6.7
2023-04-14T00:24:00.409Z,6.7
2023-04-14T00:25:00.921Z,6.7
2023-04-14T00:26:00.513Z,6.8
2023-04-14T00:27:00.410Z,6.8
2023-04-14T00:28:00.482Z,6.8
2023-04-14T00:29:00.824Z,6.8
2023-04-14T00:30:00.440Z,6.8
2023-04-14T00:31:00.501Z,6.1
2023-04-14T00:32:00.451Z,6.1
2023-04-14T00:33:00.495Z,6.1
2023-04-14T00:34:00.411Z,6.1
2023-04-14T00:35:00.444Z,6.1
2023-04-14T00:36:00.581Z,6.2
2023-04-14T00:37:00.495Z,6.2
2023-04-14T00:38:00.634Z,6.2
2023-04-14T00:39:00.600Z,6.2
2023-04-14T00:40:00.406Z,6.2
2023-04-14T00:41:00.415Z,6.0
2023-04-14T00:42:00.717Z,6.0
2023-04-14T00:43:00.434Z,6.0
2023-04-14T00:44:00.403Z,6.0
2023-04-14T00:45:00.405Z,6.0
2023-04-14T00:46:00.757Z,6.5
2023-04-14T00:47:00.699Z,6.5
2023-04-14T00:48:00.534Z,6.5
2023-04-14T00:49:01.067Z,6.5
2023-04-14T00:50:00.492Z,6.5
2023-04-14T00:51:00.465Z,6.4
2023-04-14T00:52:00.445Z,6.4
2023-04-14T00:53:01.154Z,6.4
2023-04-14T00:54:04.394Z,6.4
2023-04-14T00:55:02.360Z,6.4
2023-04-14T00:56:00.469Z,6.6
2023-04-14T00:57:01.587Z,6.6
2023-04-14T00:58:01.028Z,6.6
2023-04-14T00:59:01.582Z,6.6
2023-04-14T01:00:01.626Z,6.6
2023-04-14T01:01:00.564Z,6.5
2023-04-14T01:02:00.916Z,6.5
2023-04-14T01:03:00.715Z,6.5
2023-04-14T01:04:01.432Z,6.5
2023-04-14T01:05:00.567Z,6.5
2023-04-14T01:06:00.524Z,6.7
2023-04-14T01:07:00.435Z,6.7
2023-04-14T01:08:02.178Z,6.7
2023-04-14T01:09:00.704Z,6.7
2023-04-14T01:10:01.109Z,6.7
2023-04-14T01:11:13.081Z,6.8
2023-04-14T01:12:17.485Z,6.8
2023-04-14T01:13:14.667Z,6.8
2023-04-14T01:14:09.380Z,6.8
2023-04-14T01:15:07.917Z,6.8
2023-04-14T01:16:05.280Z,6.8
2023-04-14T01:17:08.066Z,6.8
2023-04-14T01:18:18.619Z,6.8
2023-04-14T01:19:13.617Z,6.8
2023-04-14T01:20:13.641Z,6.8
2023-04-14T01:21:12.951Z,6.6
2023-04-14T01:22:05.212Z,6.6
2023-04-14T01:23:06.135Z,6.6
2023-04-14T01:24:04.707Z,6.6
2023-04-14T01:25:07.999Z,6.6
2023-04-14T01:26:15.275Z,6.5
2023-04-14T01:27:14.653Z,6.5
2023-04-14T01:28:19.631Z,6.5
2023-04-14T01:29:01.690Z,6.5
2023-04-14T01:30:20.332Z,6.8
2023-04-14T01:31:09.177Z,6.8
2023-04-14T01:32:03.900Z,6.8
2023-04-14T01:33:05.856Z,6.8
2023-04-14T01:34:13.601Z,6.8
2023-04-14T01:35:09.484Z,6.8
2023-04-14T01:36:06.545Z,7.2
2023-04-14T01:37:14.507Z,7.2
2023-04-14T01:38:05.556Z,7.2
2023-04-14T01:39:07.116Z,7.2
2023-04-14T01:40:09.652Z,7.2
2023-04-14T01:41:04.951Z,7.6
2023-04-14T01:42:04.879Z,7.6
2023-04-14T01:43:07.054Z,7.6
2023-04-14T01:44:03.128Z,7.6
2023-04-14T01:45:07.033Z,7.6
2023-04-14T01:46:05.984Z,7.3
2023-04-14T01:47:04.958Z,7.3
2023-04-14T01:48:01.269Z,7.3
2023-04-14T01:49:01.287Z,7.3
2023-04-14T01:50:03.149Z,7.3
2023-04-14T01:51:01.839Z,7.7
2023-04-14T01:52:04.718Z,7.7
2023-04-14T01:53:04.858Z,7.7
2023-04-14T01:54:02.020Z,7.7
2023-04-14T01:55:02.170Z,7.7
2023-04-14T01:56:02.602Z,7.8
2023-04-14T01:57:02.663Z,7.8
2023-04-14T01:58:01.344Z,7.8
2023-04-14T01:59:01.881Z,7.8
2023-04-14T02:00:01.724Z,7.8
2023-04-14T02:01:00.561Z,7.3
2023-04-14T02:02:02.516Z,7.3
2023-04-14T02:03:02.835Z,7.3
2023-04-14T02:04:02.393Z,7.3
2023-04-14T02:05:00.984Z,7.3
2023-04-14T02:06:02.820Z,7.3
2023-04-14T02:07:01.897Z,7.3
2023-04-14T02:08:03.257Z,7.3
2023-04-14T02:09:02.459Z,7.3
2023-04-14T02:10:04.148Z,7.3
2023-04-14T02:11:01.649Z,7.3
2023-04-14T02:12:02.730Z,7.3
2023-04-14T02:13:02.564Z,7.3
2023-04-14T02:14:01.662Z,7.3
2023-04-14T02:15:01.242Z,7.3
2023-04-14T02:16:01.822Z,7.3
2023-04-14T02:17:00.449Z,7.3
2023-04-14T02:18:03.179Z,7.3
2023-04-14T02:19:02.804Z,7.3
2023-04-14T02:20:00.702Z,7.3
2023-04-14T02:21:02.770Z,7.8
2023-04-14T02:22:02.035Z,7.8
2023-04-14T02:23:00.490Z,7.8
2023-04-14T02:24:00.847Z,7.8
2023-04-14T02:25:00.838Z,7.8
2023-04-14T02:26:06.436Z,7.7
2023-04-14T02:27:07.700Z,7.7
2023-04-14T02:28:05.386Z,7.7
2023-04-14T02:29:10.242Z,7.7
2023-04-14T02:30:08.564Z,8.4
2023-04-14T02:31:06.376Z,8.4
2023-04-14T02:32:04.317Z,8.4
2023-04-14T02:33:07.308Z,8.4
2023-04-14T02:34:04.824Z,8.4
2023-04-14T02:35:14.621Z,8.3
2023-04-14T02:36:05.045Z,8.3
2023-04-14T02:37:07.623Z,8.3
2023-04-14T02:38:09.110Z,8.3
2023-04-14T02:39:09.123Z,8.3
2023-04-14T02:40:06.554Z,9.1
2023-04-14T02:41:07.751Z,9.1
2023-04-14T02:42:10.498Z,9.1
2023-04-14T02:43:06.387Z,9.1
2023-04-14T02:44:13.621Z,9.1
2023-04-14T02:45:05.401Z,7.7
2023-04-14T02:46:03.290Z,7.7
2023-04-14T02:47:04.211Z,7.7
2023-04-14T02:48:04.499Z,7.7
2023-04-14T02:49:02.674Z,7.7
2023-04-14T02:50:02.897Z,7.7
2023-04-14T02:51:02.434Z,8.3
2023-04-14T02:52:02.145Z,8.3
2023-04-14T02:53:02.014Z,8.3
2023-04-14T02:54:01.897Z,8.3
2023-04-14T02:55:02.743Z,8.3
2023-04-14T02:56:00.814Z,8.1
2023-04-14T02:57:01.153Z,8.1
2023-04-14T02:58:00.696Z,8.1
2023-04-14T02:59:01.515Z,8.1
2023-04-14T03:00:01.186Z,8.1
2023-04-14T03:01:01.117Z,8.4
2023-04-14T03:02:00.837Z,8.4
2023-04-14T03:03:01.775Z,8.4
2023-04-14T03:04:00.953Z,8.4
2023-04-14T03:05:01.999Z,8.2
2023-04-14T03:06:00.983Z,8.2
2023-04-14T03:07:01.794Z,8.2
2023-04-14T03:08:02.755Z,8.2
2023-04-14T03:09:01.701Z,8.2
2023-04-14T03:10:01.441Z,8.4
2023-04-14T03:11:01.648Z,8.4
2023-04-14T03:12:02.458Z,8.4
2023-04-14T03:13:02.293Z,8.4
2023-04-14T03:14:01.906Z,8.4
2023-04-14T03:15:01.419Z,8.2
2023-04-14T03:16:02.149Z,8.2
2023-04-14T03:17:01.705Z,8.2
2023-04-14T03:18:00.762Z,8.2
2023-04-14T03:19:02.910Z,8.2
2023-04-14T03:20:01.037Z,8.5
2023-04-14T03:21:00.621Z,8.5
2023-04-14T03:22:01.807Z,8.5
2023-04-14T03:23:00.904Z,8.5
2023-04-14T03:24:00.903Z,8.5
2023-04-14T03:25:00.551Z,8.6
2023-04-14T03:26:01.488Z,8.6
2023-04-14T03:27:04.425Z,8.6
2023-04-14T03:28:03.690Z,8.6
2023-04-14T03:29:02.910Z,8.6
2023-04-14T03:30:04.248Z,8.9
2023-04-14T03:31:03.171Z,8.9
2023-04-14T03:32:04.357Z,8.9
2023-04-14T03:33:07.501Z,8.9
2023-04-14T03:34:03.328Z,8.9
2023-04-14T03:35:01.820Z,8.4
2023-04-14T03:36:00.976Z,8.4
2023-04-14T03:37:03.107Z,8.4
2023-04-14T03:38:03.403Z,8.4
2023-04-14T03:39:01.325Z,8.4
2023-04-14T03:40:01.931Z,9.1
2023-04-14T03:41:02.218Z,9.1
2023-04-14T03:42:01.601Z,9.1
2023-04-14T03:43:01.126Z,9.1
2023-04-14T03:44:02.934Z,9.1
2023-04-14T03:45:02.443Z,8.9
2023-04-14T03:46:01.712Z,8.9
2023-04-14T03:47:01.328Z,8.9
2023-04-14T03:48:02.927Z,8.9
2023-04-14T03:49:01.650Z,8.9
2023-04-14T03:50:03.319Z,9.1
2023-04-14T03:51:02.876Z,9.1
2023-04-14T03:52:03.296Z,9.1
2023-04-14T03:53:00.401Z,9.1
2023-04-14T03:54:03.801Z,9.1
2023-04-14T03:55:03.227Z,9.5
2023-04-14T03:56:02.498Z,9.5
2023-04-14T03:57:03.340Z,9.5
2023-04-14T03:58:01.997Z,9.5
2023-04-14T03:59:02.809Z,9.5
2023-04-14T04:00:02.580Z,9.6
2023-04-14T04:01:01.908Z,9.6
2023-04-14T04:02:01.254Z,9.6
2023-04-14T04:03:01.562Z,9.6
2023-04-14T04:04:01.160Z,9.6
2023-04-14T04:05:01.270Z,10.3
2023-04-14T04:06:02.572Z,10.3
2023-04-14T04:07:00.701Z,10.3
2023-04-14T04:08:01.901Z,10.3
2023-04-14T04:09:01.701Z,10.3
2023-04-14T04:10:03.796Z,10.2
2023-04-14T04:11:01.566Z,10.2
2023-04-14T04:12:02.362Z,10.2
2023-04-14T04:13:01.958Z,10.2
2023-04-14T04:14:03.059Z,10.2
2023-04-14T04:15:00.626Z,11.0
2023-04-14T04:16:01.067Z,11.0
2023-04-14T04:17:04.672Z,11.0
2023-04-14T04:18:02.409Z,11.0
2023-04-14T04:19:04.559Z,11.0
2023-04-14T04:20:07.156Z,11.0
2023-04-14T04:21:01.583Z,11.0
2023-04-14T04:22:02.392Z,11.0
2023-04-14T04:23:02.906Z,11.0
2023-04-14T04:24:02.066Z,11.0
2023-04-14T04:25:01.324Z,11.4
2023-04-14T04:26:00.825Z,11.4
2023-04-14T04:27:00.453Z,11.4
2023-04-14T04:28:00.780Z,11.4
2023-04-14T04:29:02.482Z,11.4
2023-04-14T04:30:00.540Z,11.9
2023-04-14T04:31:02.579Z,11.9
2023-04-14T04:32:00.600Z,11.9
2023-04-14T04:33:02.020Z,11.9
2023-04-14T04:34:01.075Z,11.9
2023-04-14T04:35:01.961Z,12.9
2023-04-14T04:36:01.798Z,12.9
2023-04-14T04:37:00.549Z,12.9
2023-04-14T04:38:00.457Z,12.9
2023-04-14T04:39:00.837Z,12.9
2023-04-14T04:40:00.501Z,13.2
2023-04-14T04:41:00.505Z,13.2
2023-04-14T04:42:01.939Z,13.2
2023-04-14T04:43:00.403Z,13.2
2023-04-14T04:44:00.593Z,13.2
2023-04-14T04:45:00.437Z,15.7
2023-04-14T04:46:13.344Z,15.7
2023-04-14T04:47:00.867Z,15.7
2023-04-14T04:48:00.425Z,15.7
2023-04-14T04:49:00.731Z,15.7
2023-04-14T04:50:00.431Z,18.1
2023-04-14T04:51:00.422Z,18.1
2023-04-14T04:52:00.438Z,18.1
2023-04-14T04:53:00.401Z,18.1
2023-04-14T04:54:00.543Z,18.1
2023-04-14T04:55:00.485Z,19.3
2023-04-14T04:56:00.420Z,19.3
2023-04-14T04:57:00.498Z,19.3
2023-04-14T04:58:00.405Z,19.3
2023-04-14T04:59:01.065Z,19.3
2023-04-14T05:00:00.401Z,21.3
2023-04-14T05:01:09.292Z,21.3
2023-04-14T05:02:00.520Z,21.3
2023-04-14T05:03:00.513Z,21.3
2023-04-14T05:04:00.555Z,21.3
2023-04-14T05:05:00.417Z,22.1
2023-04-14T05:06:00.409Z,22.1
2023-04-14T05:07:01.932Z,22.1
2023-04-14T05:08:00.407Z,22.1
2023-04-14T05:09:00.669Z,22.1
2023-04-14T05:10:00.409Z,22.9
2023-04-14T05:11:00.394Z,22.9
2023-04-14T05:12:00.401Z,22.9
2023-04-14T05:13:00.413Z,22.9
2023-04-14T05:14:01.285Z,22.9
2023-04-14T05:15:00.397Z,22.1
2023-04-14T05:16:04.406Z,22.1
2023-04-14T05:17:00.459Z,22.1
2023-04-14T05:18:00.483Z,22.1
2023-04-14T05:19:00.737Z,22.1
2023-04-14T05:20:00.412Z,22.8
2023-04-14T05:21:01.166Z,22.8
2023-04-14T05:22:00.560Z,22.8
2023-04-14T05:23:00.394Z,22.8
2023-04-14T05:24:00.592Z,22.8
2023-04-14T05:25:00.504Z,22.7
2023-04-14T05:26:16.278Z,22.7
2023-04-14T05:27:13.874Z,22.7
2023-04-14T05:28:00.418Z,22.7
2023-04-14T05:29:00.917Z,22.7
2023-04-14T05:30:00.420Z,21.6
2023-04-14T05:31:01.441Z,21.6
2023-04-14T05:32:00.402Z,21.6
2023-04-14T05:33:00.496Z,21.6
2023-04-14T05:34:00.716Z,21.6
2023-04-14T05:35:00.393Z,22.9
2023-04-14T05:36:00.646Z,22.9
2023-04-14T05:37:00.412Z,22.9
2023-04-14T05:38:00.409Z,22.9
2023-04-14T05:39:00.449Z,22.9
2023-04-14T05:40:00.407Z,23.2
2023-04-14T05:41:00.414Z,23.2
2023-04-14T05:42:00.444Z,23.2
2023-04-14T05:43:00.501Z,23.2
2023-04-14T05:44:00.909Z,23.2
2023-04-14T05:45:00.419Z,22.3
2023-04-14T05:46:00.415Z,22.3
2023-04-14T05:47:00.555Z,22.3
2023-04-14T05:48:00.561Z,22.3
2023-04-14T05:49:00.748Z,22.3
2023-04-14T05:50:00.451Z,22.7
2023-04-14T05:51:00.455Z,22.7
2023-04-14T05:52:00.420Z,22.7
2023-04-14T05:53:00.546Z,22.7
2023-04-14T05:54:00.709Z,22.7
2023-04-14T05:55:00.419Z,23.2
2023-04-14T05:56:00.405Z,23.2
2023-04-14T05:57:00.416Z,23.2
2023-04-14T05:58:00.592Z,23.2
2023-04-14T05:59:00.423Z,23.2
2023-04-14T06:00:00.460Z,22.6
2023-04-14T06:01:00.459Z,22.6
2023-04-14T06:02:00.481Z,22.6
2023-04-14T06:03:00.570Z,22.6
2023-04-14T06:04:01.138Z,22.6
2023-04-14T06:05:00.691Z,23.5
2023-04-14T06:06:00.405Z,23.5
2023-04-14T06:07:00.537Z,23.5
2023-04-14T06:08:00.446Z,23.5
2023-04-14T06:09:00.519Z,23.5
2023-04-14T06:10:00.766Z,23.5
2023-04-14T06:11:00.410Z,23.5
2023-04-14T06:12:00.411Z,23.5
2023-04-14T06:13:00.397Z,23.5
2023-04-14T06:14:00.518Z,23.5
2023-04-14T06:15:00.513Z,23.3
2023-04-14T06:16:00.497Z,23.3
2023-04-14T06:17:00.478Z,23.3
2023-04-14T06:18:00.786Z,23.3
2023-04-14T06:19:00.507Z,23.3
2023-04-14T06:20:00.464Z,22.6
2023-04-14T06:21:00.783Z,22.6
2023-04-14T06:22:00.413Z,22.6
2023-04-14T06:23:00.460Z,22.6
2023-04-14T06:24:00.461Z,22.6
2023-04-14T06:25:00.406Z,22.0
2023-04-14T06:26:00.454Z,22.0
2023-04-14T06:27:00.502Z,22.0
2023-04-14T06:28:00.415Z,22.0
2023-04-14T06:29:00.794Z,22.0
2023-04-14T06:30:00.427Z,23.1
2023-04-14T06:31:00.490Z,23.1
2023-04-14T06:32:00.510Z,23.1
2023-04-14T06:33:00.494Z,23.1
2023-04-14T06:34:00.464Z,23.1
2023-04-14T06:35:00.402Z,22.7
2023-04-14T06:36:00.934Z,22.7
2023-04-14T06:37:00.440Z,22.7
2023-04-14T06:38:01.002Z,22.7
2023-04-14T06:39:00.668Z,22.7
2023-04-14T06:40:00.418Z,22.7
2023-04-14T06:41:00.431Z,22.7
2023-04-14T06:42:00.403Z,22.7
2023-04-14T06:43:00.425Z,22.7
2023-04-14T06:44:00.457Z,22.7
2023-04-14T06:45:00.475Z,22.6
2023-04-14T06:46:00.515Z,22.6
2023-04-14T06:47:00.447Z,22.6
2023-04-14T06:48:00.442Z,22.6
2023-04-14T06:49:01.218Z,22.6
2023-04-14T06:50:00.396Z,22.3
2023-04-14T06:51:00.448Z,22.3
2023-04-14T06:52:00.413Z,22.3
2023-04-14T06:53:00.395Z,22.3
2023-04-14T06:54:00.774Z,22.3
2023-04-14T06:55:00.452Z,20.7
2023-04-14T06:56:00.469Z,20.7
2023-04-14T06:57:01.226Z,20.7
2023-04-14T06:58:00.407Z,20.7
2023-04-14T06:59:00.400Z,20.7
2023-04-14T07:00:00.537Z,20.8
2023-04-14T07:01:02.283Z,20.8
2023-04-14T07:02:00.541Z,20.8
2023-04-14T07:03:00.615Z,20.8
2023-04-14T07:04:04.403Z,20.8
2023-04-14T07:05:00.727Z,20.6
2023-04-14T07:06:02.793Z,20.6
2023-04-14T07:07:00.682Z,20.6
2023-04-14T07:08:00.404Z,20.6
2023-04-14T07:09:00.394Z,20.6
2023-04-14T07:10:00.546Z,20.1
2023-04-14T07:11:02.233Z,20.1
2023-04-14T07:12:00.431Z,20.1
2023-04-14T07:13:00.389Z,20.1
2023-04-14T07:14:00.728Z,20.1
2023-04-14T07:15:00.417Z,20.5
2023-04-14T07:16:01.934Z,20.5
2023-04-14T07:17:00.429Z,20.5
2023-04-14T07:18:00.517Z,20.5
2023-04-14T07:19:00.391Z,20.5
2023-04-14T07:20:00.387Z,20.2
2023-04-14T07:21:01.182Z,20.2
2023-04-14T07:22:00.437Z,20.2
2023-04-14T07:23:00.423Z,20.2
2023-04-14T07:24:00.760Z,20.2
2023-04-14T07:25:00.396Z,19.4
2023-04-14T07:26:00.489Z,19.4
2023-04-14T07:27:00.424Z,19.4
2023-04-14T07:28:03.962Z,19.4
2023-04-14T07:29:00.544Z,19.4
2023-04-14T07:30:00.408Z,19.2
2023-04-14T07:31:06.479Z,19.2
2023-04-14T07:32:00.510Z,19.2
2023-04-14T07:33:00.406Z,19.2
2023-04-14T07:34:00.693Z,19.2
2023-04-14T07:35:00.496Z,19.5
2023-04-14T07:36:03.991Z,19.5
2023-04-14T07:37:00.439Z,19.5
2023-04-14T07:38:00.439Z,19.5
2023-04-14T07:39:00.395Z,19.5
2023-04-14T07:40:00.573Z,19.9
2023-04-14T07:41:04.122Z,19.9
2023-04-14T07:42:00.415Z,19.9
2023-04-14T07:43:00.440Z,19.9
2023-04-14T07:44:00.718Z,19.9
2023-04-14T07:45:01.051Z,20.2
2023-04-14T07:46:01.469Z,20.2
2023-04-14T07:47:00.382Z,20.2
2023-04-14T07:48:00.824Z,20.2
2023-04-14T07:49:00.467Z,20.2
2023-04-14T07:50:00.522Z,22.4
2023-04-14T07:51:00.747Z,22.4
2023-04-14T07:52:00.406Z,22.4
2023-04-14T07:53:00.435Z,22.4
2023-04-14T07:54:00.722Z,22.4
2023-04-14T07:55:00.400Z,21.6
2023-04-14T07:56:00.467Z,21.6
2023-04-14T07:57:00.433Z,21.6
2023-04-14T07:58:00.424Z,21.6
2023-04-14T07:59:00.732Z,21.6
2023-04-14T08:00:00.853Z,20.3
2023-04-14T08:01:00.426Z,20.3
2023-04-14T08:02:00.545Z,20.3
2023-04-14T08:03:00.707Z,20.3
2023-04-14T08:04:00.631Z,20.3
2023-04-14T08:05:00.435Z,20.0
2023-04-14T08:06:00.472Z,20.0
2023-04-14T08:07:00.408Z,20.0
2023-04-14T08:08:00.506Z,20.0
2023-04-14T08:09:00.717Z,20.0
2023-04-14T08:10:00.396Z,22.4
2023-04-14T08:11:00.461Z,22.4
2023-04-14T08:12:00.402Z,22.4
2023-04-14T08:13:03.070Z,22.4
2023-04-14T08:14:00.439Z,22.4
2023-04-14T08:15:00.431Z,19.5
2023-04-14T08:16:00.498Z,19.5
2023-04-14T08:17:00.403Z,19.5
2023-04-14T08:18:00.733Z,19.5
2023-04-14T08:19:00.714Z,19.5
2023-04-14T08:20:00.445Z,20.4
2023-04-14T08:21:00.405Z,20.4
2023-04-14T08:22:00.398Z,20.4
2023-04-14T08:23:00.395Z,20.4
2023-04-14T08:24:00.588Z,20.4
2023-04-14T08:25:00.484Z,19.9
2023-04-14T08:26:00.448Z,19.9
2023-04-14T08:27:00.397Z,19.9
2023-04-14T08:28:00.400Z,19.9
2023-04-14T08:29:00.707Z,19.9
2023-04-14T08:30:00.408Z,20.5
2023-04-14T08:31:00.419Z,20.5
2023-04-14T08:32:00.456Z,20.5
2023-04-14T08:33:00.411Z,20.5
2023-04-14T08:34:00.441Z,20.5
2023-04-14T08:35:35.357Z,20.0
2023-04-14T08:36:00.888Z,20.0
2023-04-14T08:37:00.420Z,20.0
2023-04-14T08:38:00.417Z,20.0
2023-04-14T08:39:00.623Z,20.0
2023-04-14T08:40:00.447Z,20.9
2023-04-14T08:41:03.260Z,20.9
2023-04-14T08:42:00.464Z,20.9
2023-04-14T08:43:00.440Z,20.9
2023-04-14T08:44:00.464Z,20.9
2023-04-14T08:45:00.413Z,21.2
2023-04-14T08:46:00.818Z,21.2
2023-04-14T08:47:01.225Z,21.2
2023-04-14T08:48:02.582Z,21.2
2023-04-14T08:49:05.328Z,21.2
2023-04-14T08:50:05.413Z,20.4
2023-04-14T08:51:09.017Z,20.4
2023-04-14T08:52:01.550Z,20.4
2023-04-14T08:53:01.288Z,20.4
2023-04-14T08:54:04.460Z,20.4
2023-04-14T08:55:01.311Z,22.9
2023-04-14T08:56:02.612Z,22.9
2023-04-14T08:57:02.415Z,22.9
2023-04-14T08:58:02.342Z,22.9
2023-04-14T08:59:00.454Z,22.9
2023-04-14T09:00:00.596Z,20.5
2023-04-14T09:01:01.058Z,20.5
2023-04-14T09:02:02.597Z,20.5
2023-04-14T09:03:01.125Z,20.5
2023-04-14T09:04:01.956Z,20.5
2023-04-14T09:05:00.903Z,21.4
2023-04-14T09:06:00.608Z,21.4
2023-04-14T09:07:01.121Z,21.4
2023-04-14T09:08:01.169Z,21.4
2023-04-14T09:09:01.058Z,21.4
2023-04-14T09:10:00.448Z,21.8
2023-04-14T09:11:01.279Z,21.8
2023-04-14T09:12:00.674Z,21.8
2023-04-14T09:13:02.979Z,21.8
2023-04-14T09:14:01.292Z,21.8
2023-04-14T09:15:00.535Z,22.6
2023-04-14T09:16:00.615Z,22.6
2023-04-14T09:17:00.600Z,22.6
2023-04-14T09:18:00.983Z,22.6
2023-04-14T09:19:06.657Z,22.6
2023-04-14T09:20:36.047Z,22.5
2023-04-14T09:21:37.195Z,22.5
2023-04-14T09:22:00.534Z,22.5
2023-04-14T09:23:00.478Z,22.5
2023-04-14T09:24:01.344Z,22.5
2023-04-14T09:25:01.445Z,25.5
2023-04-14T09:26:00.461Z,25.5
2023-04-14T09:27:02.754Z,25.5
2023-04-14T09:28:00.455Z,25.5
2023-04-14T09:29:00.771Z,25.5
2023-04-14T09:30:01.389Z,23.6
2023-04-14T09:31:00.450Z,23.6
2023-04-14T09:32:00.531Z,23.6
2023-04-14T09:33:05.315Z,23.6
2023-04-14T09:34:00.741Z,23.6
2023-04-14T09:35:00.455Z,24.0
2023-04-14T09:36:00.446Z,24.0
2023-04-14T09:37:03.542Z,24.0
2023-04-14T09:38:00.413Z,24.0
2023-04-14T09:39:11.022Z,30.2
2023-04-14T09:40:00.425Z,30.2
2023-04-14T09:41:00.781Z,30.2
2023-04-14T09:42:02.138Z,30.2
2023-04-14T09:43:00.424Z,30.2
2023-04-14T09:44:07.534Z,24.8
2023-04-14T09:45:00.433Z,24.8
2023-04-14T09:46:05.958Z,24.8
2023-04-14T09:47:03.892Z,24.8
2023-04-14T09:48:08.616Z,24.8
2023-04-14T09:49:00.421Z,24.8
2023-04-14T09:50:02.954Z,25.8
2023-04-14T09:51:05.875Z,25.8
2023-04-14T09:52:04.367Z,25.8
2023-04-14T09:53:02.856Z,25.8
2023-04-14T09:54:02.109Z,25.8
2023-04-14T09:55:00.412Z,26.1
2023-04-14T09:56:04.466Z,26.1
2023-04-14T09:57:01.114Z,26.1
2023-04-14T09:58:00.445Z,26.1
2023-04-14T09:59:01.205Z,26.1
2023-04-14T10:00:00.425Z,25.7
2023-04-14T10:01:02.818Z,25.7
2023-04-14T10:02:05.540Z,25.7
2023-04-14T10:03:00.547Z,25.7
2023-04-14T10:04:01.485Z,25.7
2023-04-14T10:05:03.143Z,26.5
2023-04-14T10:06:01.020Z,26.5
2023-04-14T10:07:00.402Z,26.5
2023-04-14T10:08:01.853Z,26.5
2023-04-14T10:09:00.793Z,26.5
2023-04-14T10:10:10.841Z,27.4
2023-04-14T10:11:13.668Z,27.4
2023-04-14T10:12:11.402Z,27.4
2023-04-14T10:13:00.412Z,27.4
2023-04-14T10:14:02.649Z,27.4
2023-04-14T10:15:00.444Z,29.0
2023-04-14T10:16:00.449Z,29.0
2023-04-14T10:17:00.610Z,29.0
2023-04-14T10:18:00.646Z,29.0
2023-04-14T10:19:01.076Z,29.0
2023-04-14T10:20:00.473Z,31.6
2023-04-14T10:21:04.024Z,31.6
2023-04-14T10:22:01.137Z,31.6
2023-04-14T10:23:01.816Z,31.6
2023-04-14T10:24:00.465Z,31.6
2023-04-14T10:25:01.109Z,31.4
2023-04-14T10:26:01.078Z,31.4
2023-04-14T10:27:02.150Z,31.4
2023-04-14T10:28:00.507Z,31.4
2023-04-14T10:29:00.910Z,31.4
2023-04-14T10:30:00.487Z,31.3
2023-04-14T10:31:01.882Z,31.3
2023-04-14T10:32:04.607Z,31.3
2023-04-14T10:33:00.714Z,31.3
2023-04-14T10:34:06.087Z,35.3
2023-04-14T10:35:08.220Z,35.3
2023-04-14T10:36:01.137Z,35.3
2023-04-14T10:37:11.090Z,35.3
2023-04-14T10:38:00.464Z,35.3
2023-04-14T10:39:02.610Z,34.4
2023-04-14T10:40:02.349Z,34.4
2023-04-14T10:41:00.444Z,34.4
2023-04-14T10:42:00.415Z,34.4
2023-04-14T10:43:00.924Z,34.4
2023-04-14T10:44:00.434Z,34.4
2023-04-14T10:45:03.236Z,36.3
2023-04-14T10:46:00.525Z,36.3
2023-04-14T10:47:02.680Z,36.3
2023-04-14T10:48:01.655Z,36.3
2023-04-14T10:49:00.832Z,35.5
2023-04-14T10:50:11.304Z,35.5
2023-04-14T10:51:02.618Z,35.5
2023-04-14T10:52:02.271Z,35.5
2023-04-14T10:53:05.477Z,35.5
2023-04-14T10:54:02.250Z,36.7
2023-04-14T10:55:05.635Z,36.7
2023-04-14T10:56:02.534Z,36.7
2023-04-14T10:57:08.030Z,36.7
2023-04-14T10:58:04.912Z,36.7
2023-04-14T10:59:01.625Z,35.6
2023-04-14T11:00:00.458Z,35.6
2023-04-14T11:01:20.374Z,35.6
2023-04-14T11:02:00.544Z,35.6
2023-04-14T11:03:04.462Z,35.6
2023-04-14T11:04:16.050Z,36.4
2023-04-14T11:05:09.321Z,36.4
2023-04-14T11:06:00.512Z,36.4
2023-04-14T11:07:07.636Z,36.4
2023-04-14T11:08:02.781Z,36.4
2023-04-14T11:09:00.751Z,35.4
2023-04-14T11:10:20.348Z,35.4
2023-04-14T11:11:04.022Z,35.4
2023-04-14T11:12:03.385Z,35.4
2023-04-14T11:13:04.204Z,35.4
2023-04-14T11:14:10.382Z,37.0
2023-04-14T11:15:02.150Z,37.0
2023-04-14T11:16:03.179Z,37.0
2023-04-14T11:17:04.709Z,37.0
2023-04-14T11:18:10.384Z,37.0
2023-04-14T11:19:00.592Z,42.2
2023-04-14T11:20:18.410Z,42.2
2023-04-14T11:21:10.688Z,42.2
2023-04-14T11:22:00.612Z,42.2
2023-04-14T11:23:00.616Z,42.2
2023-04-14T11:24:00.436Z,35.9
2023-04-14T11:25:00.638Z,35.9
2023-04-14T11:26:00.605Z,35.9
2023-04-14T11:27:00.422Z,35.9
2023-04-14T11:28:01.476Z,35.9
2023-04-14T11:29:06.306Z,35.7
2023-04-14T11:30:00.512Z,35.7
2023-04-14T11:31:02.541Z,35.7
2023-04-14T11:32:02.348Z,35.7
2023-04-14T11:33:00.508Z,35.7
2023-04-14T11:34:03.256Z,37.2
2023-04-14T11:35:06.479Z,37.2
2023-04-14T11:36:01.539Z,37.2
2023-04-14T11:37:01.559Z,37.2
2023-04-14T11:38:00.536Z,37.2
2023-04-14T11:39:01.422Z,35.9
2023-04-14T11:40:01.551Z,35.9
2023-04-14T11:41:00.886Z,35.9
2023-04-14T11:42:00.525Z,35.9
2023-04-14T11:43:00.510Z,35.9
2023-04-14T11:44:00.488Z,36.4
2023-04-14T11:45:01.778Z,36.4
2023-04-14T11:46:04.560Z,36.4
2023-04-14T11:47:00.520Z,36.4
2023-04-14T11:48:03.890Z,36.4
2023-04-14T11:49:00.760Z,35.9
2023-04-14T11:50:01.980Z,35.9
2023-04-14T11:51:00.445Z,35.9
2023-04-14T11:52:07.712Z,35.9
2023-04-14T11:53:01.045Z,35.9
2023-04-14T11:54:00.488Z,36.4
2023-04-14T11:55:00.880Z,36.4
2023-04-14T11:56:00.679Z,36.4
2023-04-14T11:57:00.484Z,36.4
2023-04-14T11:58:00.774Z,36.4
2023-04-14T11:59:01.451Z,35.5
2023-04-14T12:00:00.461Z,35.5
2023-04-14T12:01:00.524Z,35.5
2023-04-14T12:02:00.948Z,35.5
2023-04-14T12:03:01.889Z,35.5
2023-04-14T12:04:02.477Z,35.4
2023-04-14T12:05:00.782Z,35.4
2023-04-14T12:06:01.570Z,35.4
2023-04-14T12:07:01.046Z,35.4
2023-04-14T12:08:02.015Z,35.4
2023-04-14T12:09:00.628Z,36.4
2023-04-14T12:10:03.364Z,36.4
2023-04-14T12:11:11.270Z,36.4
2023-04-14T12:12:06.924Z,36.4
2023-04-14T12:13:04.321Z,36.4
2023-04-14T12:14:01.086Z,36.2
2023-04-14T12:15:01.251Z,36.2
2023-04-14T12:16:00.729Z,36.2
2023-04-14T12:17:00.759Z,36.2
2023-04-14T12:18:00.610Z,36.2
2023-04-14T12:19:00.842Z,36.5
2023-04-14T12:20:00.455Z,36.5
2023-04-14T12:21:02.954Z,36.5
2023-04-14T12:22:01.764Z,36.5
2023-04-14T12:23:03.347Z,36.5
2023-04-14T12:24:00.442Z,35.1
2023-04-14T12:25:09.224Z,35.1
2023-04-14T12:26:01.230Z,35.1
2023-04-14T12:27:00.493Z,35.1
2023-04-14T12:28:00.398Z,35.1
2023-04-14T12:29:00.897Z,34.6
2023-04-14T12:30:00.464Z,34.6
2023-04-14T12:31:02.677Z,34.6
2023-04-14T12:32:01.480Z,34.6
2023-04-14T12:33:09.179Z,34.6
2023-04-14T12:34:01.492Z,34.3
2023-04-14T12:35:00.416Z,34.3
2023-04-14T12:36:03.360Z,34.3
2023-04-14T12:37:10.754Z,34.3
2023-04-14T12:38:00.418Z,34.3
2023-04-14T12:39:05.484Z,35.9
2023-04-14T12:40:01.215Z,35.9
2023-04-14T12:41:00.605Z,35.9
2023-04-14T12:42:00.518Z,35.9
2023-04-14T12:43:00.456Z,35.9
2023-04-14T12:44:13.317Z,36.7
2023-04-14T12:45:01.101Z,36.7
2023-04-14T12:46:01.989Z,36.7
2023-04-14T12:47:00.484Z,36.7
2023-04-14T12:48:00.546Z,36.7
2023-04-14T12:49:00.815Z,37.9
2023-04-14T12:50:11.512Z,37.9
2023-04-14T12:51:12.596Z,37.9
2023-04-14T12:52:00.648Z,37.9
2023-04-14T12:53:00.416Z,37.9
2023-04-14T12:54:05.978Z,37.4
2023-04-14T12:55:00.424Z,37.4
2023-04-14T12:56:04.529Z,37.4
2023-04-14T12:57:00.405Z,37.4
2023-04-14T12:58:00.412Z,37.4
2023-04-14T12:59:02.986Z,37.5
2023-04-14T13:00:00.508Z,37.5
2023-04-14T13:01:00.464Z,37.5
2023-04-14T13:02:00.556Z,37.5
2023-04-14T13:03:00.581Z,37.5
2023-04-14T13:04:00.463Z,38.5
2023-04-14T13:05:00.404Z,38.5
2023-04-14T13:06:00.403Z,38.5
2023-04-14T13:07:00.442Z,38.5
2023-04-14T13:08:00.439Z,38.5
2023-04-14T13:09:00.740Z,37.3
2023-04-14T13:10:00.427Z,37.3
2023-04-14T13:11:00.538Z,37.3
2023-04-14T13:12:00.430Z,37.3
2023-04-14T13:13:00.400Z,37.3
2023-04-14T13:14:00.434Z,38.0
2023-04-14T13:15:00.439Z,38.0
2023-04-14T13:16:15.141Z,38.0
2023-04-14T13:17:00.415Z,38.0
2023-04-14T13:18:00.425Z,38.0
2023-04-14T13:19:00.657Z,37.0
2023-04-14T13:20:00.450Z,37.0
2023-04-14T13:21:00.529Z,37.0
2023-04-14T13:22:00.432Z,37.0
2023-04-14T13:23:00.397Z,37.0
2023-04-14T13:24:00.457Z,37.4
2023-04-14T13:25:00.449Z,37.4
2023-04-14T13:26:00.521Z,37.4